createdAt,value
2023-01-05T00:01:06.987Z,101049.25
2023-01-05T00:03:08.419Z,101039.56
2023-01-05T00:05:09.972Z,101066.78
2023-01-05T00:07:11.424Z,101048.34
2023-01-05T00:09:17.512Z,101050.94
2023-01-05T00:11:41.036Z,101048.31
2023-01-05T00:14:00.825Z,101059.72
2023-01-05T00:16:20.663Z,101055.34
2023-01-05T00:18:40.595Z,101057.19
2023-01-05T00:21:00.570Z,101049.34
2023-01-05T00:23:02.453Z,101046.78
2023-01-05T00:25:11.739Z,101042.41
2023-01-05T00:27:14.208Z,101055.56
2023-01-05T00:29:15.660Z,101035.38
2023-01-05T00:31:17.157Z,101054.66
2023-01-05T00:33:18.681Z,101044.94
2023-01-05T00:35:21.478Z,101049.31
2023-01-05T00:37:33.908Z,101039.66
2023-01-05T00:39:35.376Z,101053.66
2023-01-05T00:41:36.883Z,101045.78
2023-01-05T00:43:38.340Z,101053.72
2023-01-05T00:45:39.840Z,101053.75
2023-01-05T00:47:41.665Z,101049.44
2023-01-05T00:49:43.146Z,101059.97
2023-01-05T00:51:44.591Z,101059.25
2023-01-05T00:53:48.163Z,101054.09
2023-01-05T00:55:57.042Z,101066.56
2023-01-05T00:57:58.497Z,101073.66
2023-01-05T01:00:02.133Z,101072.91
2023-01-05T01:02:03.912Z,101069.38
2023-01-05T01:04:05.567Z,101074.72
2023-01-05T01:06:07.102Z,101072.13
2023-01-05T01:08:08.537Z,101074.72
2023-01-05T01:10:11.261Z,101070.31
2023-01-05T01:12:12.737Z,101072.94
2023-01-05T01:14:14.715Z,101081.66
2023-01-05T01:16:16.316Z,101086.94
2023-01-05T01:18:17.909Z,101080.81
2023-01-05T01:20:20.191Z,101091.38
2023-01-05T01:22:21.708Z,101084.41
2023-01-05T01:24:25.981Z,101093.22
2023-01-05T01:26:27.457Z,101085.34
2023-01-05T01:28:28.900Z,101095.88
2023-01-05T01:30:30.417Z,101094.97
2023-01-05T01:32:31.938Z,101097.66
2023-01-05T01:34:33.499Z,101107.31
2023-01-05T01:36:35.125Z,101097.69
2023-01-05T01:38:36.620Z,101111.75
2023-01-05T01:40:43.526Z,101119.66
2023-01-05T01:42:44.959Z,101111.81
2023-01-05T01:44:53.848Z,101123.22
2023-01-05T01:46:55.558Z,101130.28
2023-01-05T01:49:02.673Z,101127.56
2023-01-05T01:51:14.302Z,101128.47
2023-01-05T01:53:20.733Z,101119.66
2023-01-05T01:55:22.755Z,101131.09
2023-01-05T01:57:28.073Z,101132.84
2023-01-05T01:59:29.730Z,101129.31
2023-01-05T02:01:31.844Z,101139.84
2023-01-05T02:03:33.376Z,101139.84
2023-01-05T02:05:38.024Z,101138.94
2023-01-05T02:07:44.759Z,101136.28
2023-01-05T02:09:46.756Z,101136.25
2023-01-05T02:12:05.242Z,101135.34
2023-01-05T02:14:26.258Z,101146.81
2023-01-05T02:16:52.578Z,101144.13
2023-01-05T02:19:07.232Z,101137.09
2023-01-05T02:21:18.867Z,101134.44
2023-01-05T02:23:48.258Z,101136.13
2023-01-05T02:26:11.361Z,101129.09
2023-01-05T02:28:39.480Z,101151.91
2023-01-05T02:30:59.465Z,101144.84
2023-01-05T02:33:54.901Z,101134.38
2023-01-05T02:36:16.351Z,101139.75
2023-01-05T02:38:37.615Z,101152.13
2023-01-05T02:40:49.978Z,101147.84
2023-01-05T02:42:55.240Z,101151.41
2023-01-05T02:44:56.730Z,101155.94
2023-01-05T02:47:28.292Z,101159.47
2023-01-05T02:49:32.894Z,101147.25
2023-01-05T02:51:40.589Z,101149.88
2023-01-05T02:53:49.626Z,101152.50
2023-01-05T02:55:59.381Z,101149.84
2023-01-05T02:58:10.987Z,101162.09
2023-01-05T03:00:26.912Z,101158.53
2023-01-05T03:02:31.603Z,101171.63
2023-01-05T03:05:09.826Z,101155.81
2023-01-05T03:07:15.255Z,101164.56
2023-01-05T03:09:25.984Z,101161.06
2023-01-05T03:11:55.701Z,101154.00
2023-01-05T03:14:08.559Z,101160.19
2023-01-05T03:16:15.147Z,101164.59
2023-01-05T03:18:20.292Z,101167.19
2023-01-05T03:20:25.102Z,101174.19
2023-01-05T03:22:48.810Z,101185.59
2023-01-05T03:25:09.529Z,101180.31
2023-01-05T03:27:30.981Z,101176.81
2023-01-05T03:29:50.761Z,101168.94
2023-01-05T03:32:18.047Z,101165.44
2023-01-05T03:34:46.061Z,101174.22
2023-01-05T03:36:58.472Z,101175.97
2023-01-05T03:39:02.399Z,101169.81
2023-01-05T03:41:10.207Z,101173.28
2023-01-05T03:43:12.237Z,101168.84
2023-01-05T03:45:15.500Z,101173.22
2023-01-05T03:47:17.028Z,101188.09
2023-01-05T03:49:18.842Z,101186.34
2023-01-05T03:51:20.400Z,101189.88
2023-01-05T03:53:21.894Z,101184.59
2023-01-05T03:55:23.969Z,101189.91
2023-01-05T03:57:25.458Z,101194.25
2023-01-05T03:59:26.920Z,101195.16
2023-01-05T04:01:28.488Z,101204.78
2023-01-05T04:03:32.234Z,101196.84
2023-01-05T04:05:33.965Z,101196.81
2023-01-05T04:07:35.436Z,101202.06
2023-01-05T04:09:36.904Z,101204.69
2023-01-05T04:11:38.342Z,101206.44
2023-01-05T04:13:40.022Z,101193.25
2023-01-05T04:15:41.789Z,101207.31
2023-01-05T04:17:43.280Z,101220.50
2023-01-05T04:19:44.833Z,101218.75
2023-01-05T04:21:46.290Z,101209.09
2023-01-05T04:23:47.764Z,101223.16
2023-01-05T04:25:49.230Z,101225.81
2023-01-05T04:27:50.685Z,101223.22
2023-01-05T04:29:52.174Z,101230.22
2023-01-05T04:31:53.651Z,101239.00
2023-01-05T04:33:55.123Z,101231.94
2023-01-05T04:35:56.631Z,101231.03
2023-01-05T04:37:58.221Z,101239.84
2023-01-05T04:39:59.682Z,101240.72
2023-01-05T04:42:01.357Z,101247.75
2023-01-05T04:44:02.818Z,101245.13
2023-01-05T04:46:04.486Z,101253.16
2023-01-05T04:48:06.198Z,101256.72
2023-01-05T04:50:08.492Z,101259.53
2023-01-05T04:52:10.244Z,101256.09
2023-01-05T04:54:11.711Z,101265.78
2023-01-05T04:56:13.183Z,101257.91
2023-01-05T04:58:14.641Z,101260.59
2023-01-05T05:00:16.447Z,101263.25
2023-01-05T05:02:18.042Z,101258.91
2023-01-05T05:04:19.601Z,101263.28
2023-01-05T05:06:21.851Z,101275.63
2023-01-05T05:08:23.351Z,101268.63
2023-01-05T05:10:24.891Z,101273.94
2023-01-05T05:12:26.360Z,101276.63
2023-01-05T05:14:27.814Z,101281.00
2023-01-05T05:16:29.347Z,101274.91
2023-01-05T05:18:30.872Z,101277.56
2023-01-05T05:20:32.698Z,101286.31
2023-01-05T05:22:34.181Z,101283.69
2023-01-05T05:24:35.649Z,101287.25
2023-01-05T05:26:37.119Z,101289.00
2023-01-05T05:28:38.878Z,101294.25
2023-01-05T05:30:40.348Z,101294.22
2023-01-05T05:32:44.421Z,101291.56
2023-01-05T05:34:46.180Z,101315.25
2023-01-05T05:36:47.646Z,101299.41
2023-01-05T05:38:49.135Z,101302.88
2023-01-05T05:40:50.637Z,101300.22
2023-01-05T05:42:52.185Z,101302.88
2023-01-05T05:44:53.694Z,101312.47
2023-01-05T05:46:55.280Z,101308.09
2023-01-05T05:48:58.235Z,101319.47
2023-01-05T05:50:59.744Z,101313.31
2023-01-05T05:53:01.232Z,101320.38
2023-01-05T05:55:02.837Z,101324.75
2023-01-05T05:57:04.367Z,101335.31
2023-01-05T05:59:05.907Z,101341.41
2023-01-05T06:01:07.824Z,101347.56
2023-01-05T06:03:09.725Z,101335.22
2023-01-05T06:05:11.282Z,101351.03
2023-01-05T06:07:12.852Z,101347.50
2023-01-05T06:09:14.430Z,101350.16
2023-01-05T06:11:16.045Z,101346.63
2023-01-05T06:13:17.805Z,101347.53
2023-01-05T06:15:19.247Z,101351.91
2023-01-05T06:17:20.713Z,101358.94
2023-01-05T06:19:22.198Z,101353.66
2023-01-05T06:21:23.697Z,101369.44
2023-01-05T06:23:25.230Z,101358.91
2023-01-05T06:25:26.678Z,101361.50
2023-01-05T06:27:28.244Z,101370.25
2023-01-05T06:29:29.792Z,101369.34
2023-01-05T06:31:31.333Z,101374.63
2023-01-05T06:33:32.848Z,101380.75
2023-01-05T06:35:34.302Z,101379.00
2023-01-05T06:37:35.848Z,101384.34
2023-01-05T06:39:37.353Z,101389.69
2023-01-05T06:41:38.822Z,101387.09
2023-01-05T06:43:40.280Z,101398.53
2023-01-05T06:45:41.822Z,101397.63
2023-01-05T06:47:44.266Z,101387.97
2023-01-05T06:49:45.734Z,101409.94
2023-01-05T06:51:47.265Z,101407.31
2023-01-05T06:53:48.713Z,101417.84
2023-01-05T06:55:50.169Z,101422.25
2023-01-05T06:57:57.087Z,101424.91
2023-01-05T07:00:06.444Z,101425.81
2023-01-05T07:02:15.974Z,101429.34
2023-01-05T07:04:17.687Z,101436.38
2023-01-05T07:06:19.337Z,101435.50
2023-01-05T07:08:20.833Z,101441.66
2023-01-05T07:10:22.297Z,101439.03
2023-01-05T07:12:23.800Z,101446.97
2023-01-05T07:14:25.279Z,101447.84
2023-01-05T07:16:27.195Z,101459.28
2023-01-05T07:18:28.700Z,101460.19
2023-01-05T07:20:30.236Z,101455.78
2023-01-05T07:22:32.098Z,101461.97
2023-01-05T07:24:33.670Z,101476.91
2023-01-05T07:26:35.118Z,101472.53
2023-01-05T07:28:37.993Z,101478.75
2023-01-05T07:30:39.441Z,101475.25
2023-01-05T07:32:40.897Z,101479.72
2023-01-05T07:34:47.500Z,101492.94
2023-01-05T07:36:56.004Z,101488.59
2023-01-05T07:38:59.515Z,101492.16
2023-01-05T07:41:02.163Z,101498.31
2023-01-05T07:43:03.697Z,101493.06
2023-01-05T07:45:05.744Z,101498.34
2023-01-05T07:47:07.271Z,101504.47
2023-01-05T07:49:08.738Z,101487.81
2023-01-05T07:51:10.959Z,101507.97
2023-01-05T07:53:12.412Z,101506.22
2023-01-05T07:55:14.149Z,101519.38
2023-01-05T07:57:15.629Z,101507.09
2023-01-05T07:59:17.218Z,101514.13
2023-01-05T08:01:18.780Z,101511.50
2023-01-05T08:03:20.409Z,101512.38
2023-01-05T08:05:21.918Z,101527.31
2023-01-05T08:07:23.387Z,101518.53
2023-01-05T08:09:43.607Z,101528.22
2023-01-05T08:11:45.056Z,101519.47
2023-01-05T08:14:02.660Z,101525.66
2023-01-05T08:16:04.766Z,101537.97
2023-01-05T08:18:06.278Z,101546.78
2023-01-05T08:20:08.175Z,101542.38
2023-01-05T08:22:09.620Z,101553.78
2023-01-05T08:24:11.154Z,101551.19
2023-01-05T08:26:17.703Z,101561.72
2023-01-05T08:28:19.225Z,101565.25
2023-01-05T08:30:20.831Z,101573.19
2023-01-05T08:32:23.279Z,101576.72
2023-01-05T08:34:27.662Z,101579.34
2023-01-05T08:36:33.372Z,101589.03
2023-01-05T08:38:34.833Z,101591.69
2023-01-05T08:40:37.937Z,101603.97
2023-01-05T08:42:40.594Z,101608.38
2023-01-05T08:44:42.106Z,101616.28
2023-01-05T08:46:43.686Z,101616.31
2023-01-05T08:48:48.858Z,101626.84
2023-01-05T08:50:50.337Z,101629.50
2023-01-05T08:52:51.809Z,101639.13
2023-01-05T08:54:53.318Z,101632.13
2023-01-05T08:56:54.863Z,101642.66
2023-01-05T08:58:57.524Z,101645.31
2023-01-05T09:00:59.119Z,101658.44
2023-01-05T09:03:01.326Z,101660.19
2023-01-05T09:05:03.130Z,101662.84
2023-01-05T09:07:04.650Z,101671.59
2023-01-05T09:09:06.387Z,101678.63
2023-01-05T09:11:14.402Z,101679.53
2023-01-05T09:13:15.917Z,101685.69
2023-01-05T09:15:17.490Z,101693.56
2023-01-05T09:17:19.027Z,101696.19
2023-01-05T09:19:20.528Z,101692.69
2023-01-05T09:21:22.012Z,101691.81
2023-01-05T09:23:23.486Z,101697.06
2023-01-05T09:25:24.955Z,101693.56
2023-01-05T09:27:26.466Z,101695.31
2023-01-05T09:29:27.926Z,101709.34
2023-01-05T09:31:29.844Z,101711.09
2023-01-05T09:33:31.329Z,101713.75
2023-01-05T09:35:32.798Z,101712.00
2023-01-05T09:37:34.367Z,101717.25
2023-01-05T09:39:35.926Z,101715.50
2023-01-05T09:41:44.892Z,101720.75
2023-01-05T09:43:48.945Z,101723.38
2023-01-05T09:45:50.752Z,101724.25
2023-01-05T09:47:55.182Z,101729.50
2023-01-05T09:49:58.878Z,101733.00
2023-01-05T09:52:03.011Z,101733.88
2023-01-05T09:54:04.737Z,101749.63
2023-01-05T09:56:28.157Z,101741.75
2023-01-05T09:58:42.752Z,101741.72
2023-01-05T10:00:57.669Z,101742.59
2023-01-05T10:03:02.800Z,101746.13
2023-01-05T10:05:06.349Z,101754.00
2023-01-05T10:07:20.937Z,101757.50
2023-01-05T10:09:27.633Z,101768.03
2023-01-05T10:12:08.781Z,101768.03
2023-01-05T10:14:16.101Z,101768.03
2023-01-05T10:16:17.985Z,101773.28
2023-01-05T10:18:29.593Z,101780.31
2023-01-05T10:21:08.663Z,101781.19
2023-01-05T10:23:42.565Z,101789.97
2023-01-05T10:25:53.158Z,101785.59
2023-01-05T10:27:56.822Z,101790.84
2023-01-05T10:30:22.032Z,101792.59
2023-01-05T10:32:26.823Z,101789.06
2023-01-05T10:34:59.468Z,101789.06
2023-01-05T10:37:23.610Z,101797.81
2023-01-05T10:39:55.732Z,101801.28
2023-01-05T10:42:16.429Z,101800.41
2023-01-05T10:44:45.413Z,101805.66
2023-01-05T10:46:52.746Z,101806.53
2023-01-05T10:48:54.574Z,101808.25
2023-01-05T10:50:57.576Z,101817.91
2023-01-05T10:53:00.108Z,101819.63
2023-01-05T10:55:02.306Z,101824.81
2023-01-05T10:57:33.986Z,101819.44
2023-01-05T10:59:58.389Z,101812.34
2023-01-05T11:02:00.161Z,101817.50
2023-01-05T11:04:33.770Z,101818.28
2023-01-05T11:06:37.732Z,101822.53
2023-01-05T11:08:39.216Z,101819.53
2023-01-05T11:11:01.533Z,101812.72
2023-01-05T11:13:05.546Z,101817.06
2023-01-05T11:15:15.153Z,101816.22
2023-01-05T11:17:20.603Z,101812.09
2023-01-05T11:19:29.757Z,101818.31
2023-01-05T11:21:39.414Z,101818.72
2023-01-05T11:23:49.740Z,101819.00
2023-01-05T11:25:51.265Z,101816.50
2023-01-05T11:28:12.750Z,101821.66
2023-01-05T11:30:24.494Z,101815.66
2023-01-05T11:32:26.149Z,101818.50
2023-01-05T11:34:48.521Z,101813.97
2023-01-05T11:37:03.930Z,101825.91
2023-01-05T11:39:24.163Z,101825.41
2023-01-05T11:41:25.739Z,101818.69
2023-01-05T11:43:30.390Z,101820.84
2023-01-05T11:45:41.375Z,101825.31
2023-01-05T11:47:48.956Z,101840.81
2023-01-05T11:50:09.706Z,101838.72
2023-01-05T11:52:26.588Z,101837.66
2023-01-05T11:54:38.278Z,101831.22
2023-01-05T11:56:39.802Z,101843.19
2023-01-05T11:58:45.708Z,101838.31
2023-01-05T12:01:25.650Z,101833.44
2023-01-05T12:04:03.821Z,101828.31
2023-01-05T12:06:27.238Z,101826.66
2023-01-05T12:08:41.578Z,101839.03
2023-01-05T12:11:11.286Z,101832.91
2023-01-05T12:13:41.625Z,101840.78
2023-01-05T12:15:50.287Z,101840.69
2023-01-05T12:18:00.450Z,101844.19
2023-01-05T12:20:33.130Z,101848.75
2023-01-05T12:23:02.404Z,101848.88
2023-01-05T12:25:26.146Z,101855.19
2023-01-05T12:28:08.995Z,101841.19
2023-01-05T12:35:50.048Z,101859.16
2023-01-05T12:38:09.900Z,101860.06
2023-01-05T12:40:37.085Z,101868.03
2023-01-05T12:42:59.594Z,101865.38
2023-01-05T12:45:26.701Z,101861.81
2023-01-05T12:47:37.219Z,101859.16
2023-01-05T12:49:51.707Z,101854.75
2023-01-05T12:52:15.844Z,101856.50
2023-01-05T12:54:31.438Z,101872.38
2023-01-05T12:56:41.856Z,101869.75
2023-01-05T12:58:54.402Z,101879.41
2023-01-05T13:00:57.691Z,101881.00
2023-01-05T13:03:08.417Z,101888.84
2023-01-05T13:05:31.191Z,101900.34
2023-01-05T13:07:46.313Z,101904.78
2023-01-05T13:10:02.092Z,101904.88
2023-01-05T13:12:13.625Z,101903.13
2023-01-05T13:14:21.719Z,101906.69
2023-01-05T13:16:27.519Z,101905.78
2023-01-05T13:18:30.395Z,101909.28
2023-01-05T13:20:43.139Z,101908.38
2023-01-05T13:22:47.522Z,101915.41
2023-01-05T13:25:10.645Z,101917.19
2023-01-05T13:27:13.800Z,101919.00
2023-01-05T13:29:27.634Z,101903.19
2023-01-05T13:31:38.531Z,101898.81
2023-01-05T13:34:04.788Z,101897.97
2023-01-05T13:36:25.775Z,101906.84
2023-01-05T13:38:30.243Z,101907.75
2023-01-05T13:40:56.647Z,101916.53
2023-01-05T13:43:31.128Z,101922.66
2023-01-05T13:45:52.389Z,101920.06
2023-01-05T13:48:38.655Z,101916.56
2023-01-05T13:51:12.799Z,101913.94
2023-01-05T13:53:24.758Z,101918.34
2023-01-05T13:55:27.395Z,101927.13
2023-01-05T13:57:35.363Z,101935.06
2023-01-05T13:59:46.713Z,101941.22
2023-01-05T14:01:56.307Z,101940.34
2023-01-05T14:03:57.889Z,101940.34
2023-01-05T14:06:02.626Z,101947.41
2023-01-05T14:08:13.981Z,101952.72
2023-01-05T14:10:27.941Z,101957.19
2023-01-05T14:12:46.059Z,101951.06
2023-01-05T14:15:02.107Z,101955.50
2023-01-05T14:17:03.583Z,101955.50
2023-01-05T14:19:25.280Z,101956.41
2023-01-05T14:21:51.470Z,101953.78
2023-01-05T14:23:57.839Z,101953.78
2023-01-05T14:26:01.204Z,101953.78
2023-01-05T14:28:35.933Z,101955.53
2023-01-05T14:30:37.390Z,101958.16
2023-01-05T14:32:41.380Z,101978.38
2023-01-05T14:34:48.976Z,101969.59
2023-01-05T14:36:56.668Z,101964.34
2023-01-05T14:39:18.328Z,101971.38
2023-01-05T14:41:26.711Z,101974.94
2023-01-05T14:43:30.697Z,101977.59
2023-01-05T14:45:36.545Z,101984.63
2023-01-05T14:47:37.986Z,101984.59
2023-01-05T14:49:54.507Z,101986.38
2023-01-05T14:52:01.201Z,101993.38
2023-01-05T14:54:05.425Z,101993.41
2023-01-05T14:56:06.869Z,101996.03
2023-01-05T14:58:13.023Z,102003.91
2023-01-05T15:00:30.452Z,101996.03
2023-01-05T15:02:37.726Z,101990.75
2023-01-05T15:04:41.468Z,101993.38
2023-01-05T15:07:10.214Z,102009.19
2023-01-05T15:09:26.795Z,102011.81
2023-01-05T15:11:47.447Z,102018.81
2023-01-05T15:14:37.516Z,102013.56
2023-01-05T15:16:56.472Z,102013.56
2023-01-05T15:19:18.964Z,102009.19
2023-01-05T15:21:53.423Z,102011.81
2023-01-05T15:24:28.616Z,102011.81
2023-01-05T15:26:30.048Z,102014.47
2023-01-05T15:28:34.508Z,102011.81
2023-01-05T15:30:44.380Z,102009.19
2023-01-05T15:32:52.884Z,102010.94
2023-01-05T15:35:09.361Z,102012.69
2023-01-05T15:37:33.759Z,102008.31
2023-01-05T15:40:04.345Z,102011.81
2023-01-05T15:42:08.415Z,102011.81
2023-01-05T15:44:16.498Z,102017.09
2023-01-05T15:46:26.224Z,102016.22
2023-01-05T15:48:34.169Z,102020.59
2023-01-05T15:50:47.692Z,102022.34
2023-01-05T15:53:02.273Z,102020.59
2023-01-05T15:55:16.354Z,102024.13
2023-01-05T15:57:20.679Z,102021.50
2023-01-05T15:59:32.820Z,102025.88
2023-01-05T16:01:37.793Z,102027.63
2023-01-05T16:03:41.949Z,102033.78
2023-01-05T16:05:43.568Z,102029.41
2023-01-05T16:07:59.817Z,102035.53
2023-01-05T16:10:01.364Z,102031.16
2023-01-05T16:12:23.335Z,102030.28
2023-01-05T16:14:31.412Z,102036.41
2023-01-05T16:16:52.572Z,102042.56
2023-01-05T16:19:00.538Z,102030.25
2023-01-05T16:21:34.345Z,102039.03
2023-01-05T16:23:42.098Z,102041.66
2023-01-05T16:25:54.367Z,102042.53
2023-01-05T16:28:03.378Z,102041.66
2023-01-05T16:30:28.518Z,102041.66
2023-01-05T16:32:36.872Z,102043.41
2023-01-05T16:34:38.363Z,102039.91
2023-01-05T16:36:39.866Z,102038.16
2023-01-05T16:38:41.712Z,102037.28
2023-01-05T16:40:45.957Z,102037.28
2023-01-05T16:42:50.542Z,102032.91
2023-01-05T16:44:56.563Z,102036.41
2023-01-05T16:47:09.649Z,102036.41
2023-01-05T16:49:33.091Z,102044.31
2023-01-05T16:51:37.214Z,102037.28
2023-01-05T16:53:44.918Z,102032.03
2023-01-05T16:55:46.395Z,102017.09
2023-01-05T16:57:47.857Z,102017.97
2023-01-05T16:59:52.757Z,102020.63
2023-01-05T17:01:54.268Z,102025.88
2023-01-05T17:03:55.826Z,102025.00
2023-01-05T17:05:59.242Z,102025.00
2023-01-05T17:08:17.930Z,102026.75
2023-01-05T17:10:21.287Z,102027.66
2023-01-05T17:12:22.799Z,102027.66
2023-01-05T17:14:26.565Z,102024.13
2023-01-05T17:16:28.454Z,102028.53
2023-01-05T17:18:30.685Z,102030.28
2023-01-05T17:22:44.578Z,102025.03
2023-01-05T17:24:46.302Z,102025.03
2023-01-05T17:26:47.786Z,102026.78
2023-01-05T17:28:49.854Z,102031.16
2023-01-05T17:30:52.508Z,102033.78
2023-01-05T17:32:54.072Z,102035.56
2023-01-05T17:34:55.570Z,102032.03
2023-01-05T17:36:59.765Z,102029.41
2023-01-05T17:39:01.661Z,102024.16
2023-01-05T17:41:03.252Z,102025.88
2023-01-05T17:43:05.338Z,102018.84
2023-01-05T17:45:07.225Z,102016.22
2023-01-05T17:47:08.747Z,102017.09
2023-01-05T17:49:15.985Z,102017.09
2023-01-05T17:51:17.597Z,102015.34
2023-01-05T17:53:19.044Z,102014.47
2023-01-05T17:55:21.633Z,102017.09
2023-01-05T17:57:23.222Z,102016.22
2023-01-05T17:59:24.821Z,102015.34
2023-01-05T18:01:26.346Z,102014.47
2023-01-05T18:03:27.841Z,102016.22
2023-01-05T18:05:29.357Z,102013.59
2023-01-05T18:07:32.050Z,102008.28
2023-01-05T18:09:35.329Z,102016.19
2023-01-05T18:11:36.834Z,102008.28
2023-01-05T18:13:38.474Z,102010.94
2023-01-05T18:15:44.914Z,102016.19
2023-01-05T18:17:46.760Z,102017.06
2023-01-05T18:19:48.400Z,102012.69
2023-01-05T18:21:49.880Z,102018.81
2023-01-05T18:23:51.387Z,102008.28
2023-01-05T18:25:52.909Z,102013.56
2023-01-05T18:27:54.421Z,102008.28
2023-01-05T18:29:56.715Z,102004.78
2023-01-05T18:31:58.147Z,101996.91
2023-01-05T18:33:59.724Z,101993.41
2023-01-05T18:38:08.712Z,101995.16
2023-01-05T18:40:11.087Z,101993.41
2023-01-05T18:42:12.623Z,101995.16
2023-01-05T18:44:14.192Z,101996.91
2023-01-05T18:46:15.720Z,101995.16
2023-01-05T18:48:17.244Z,102001.28
2023-01-05T18:50:18.946Z,101994.28
2023-01-05T18:52:20.737Z,101997.78
2023-01-05T18:54:22.305Z,101992.53
2023-01-05T18:56:23.780Z,101997.78
2023-01-05T18:58:25.269Z,101989.00
2023-01-05T19:00:26.745Z,101989.00
2023-01-05T19:02:29.453Z,101984.63
2023-01-05T19:04:30.970Z,101989.88
2023-01-05T19:06:32.463Z,101989.00
2023-01-05T19:08:34.269Z,101989.00
2023-01-05T19:10:36.204Z,101989.00
2023-01-05T19:12:37.679Z,101989.00
2023-01-05T19:14:39.180Z,101990.75
2023-01-05T19:16:41.111Z,101989.88
2023-01-05T19:18:43.756Z,101995.16
2023-01-05T19:20:45.216Z,101996.91
2023-01-05T19:22:47.869Z,101994.28
2023-01-05T19:24:49.318Z,101998.66
2023-01-05T19:26:51.219Z,101994.28
2023-01-05T19:28:52.733Z,101996.03
2023-01-05T19:30:54.239Z,101986.38
2023-01-05T19:32:55.755Z,101993.41
2023-01-05T19:34:57.226Z,101996.91
2023-01-05T19:36:58.762Z,101997.78
2023-01-05T19:39:11.453Z,102002.16
2023-01-05T19:41:18.513Z,101999.53
2023-01-05T19:43:19.966Z,101993.41
2023-01-05T19:45:21.628Z,102003.91
2023-01-05T19:47:23.106Z,102005.69
2023-01-05T19:49:26.584Z,101998.69
2023-01-05T19:51:29.749Z,101994.31
2023-01-05T19:53:33.481Z,101989.03
2023-01-05T19:55:38.752Z,101982.03
2023-01-05T19:57:40.319Z,101980.28
2023-01-05T19:59:41.843Z,101982.03
2023-01-05T20:01:43.435Z,101977.63
2023-01-05T20:03:46.849Z,101971.47
2023-01-05T20:05:48.277Z,101975.00
2023-01-05T20:07:49.741Z,101958.34
2023-01-05T20:09:51.479Z,101964.50
2023-01-05T20:12:12.674Z,101972.38
2023-01-05T20:14:15.114Z,101969.75
2023-01-05T20:16:16.619Z,101964.47
2023-01-05T20:18:18.116Z,101958.34
2023-01-05T20:20:19.686Z,101965.34
2023-01-05T20:22:21.142Z,101960.97
2023-01-05T20:24:25.283Z,101964.47
2023-01-05T20:26:28.182Z,101964.47
2023-01-05T20:28:29.636Z,101951.34
2023-01-05T20:30:34.313Z,101954.84
2023-01-05T20:32:36.331Z,101953.09
2023-01-05T20:34:39.641Z,101957.44
2023-01-05T20:36:41.369Z,101953.97
2023-01-05T20:38:43.439Z,101956.59
2023-01-05T20:40:44.913Z,101953.94
2023-01-05T20:42:46.460Z,101958.31
2023-01-05T20:44:48.132Z,101955.69
2023-01-05T20:46:51.701Z,101958.31
2023-01-05T20:48:54.013Z,101953.06
2023-01-05T20:51:05.419Z,101954.81
2023-01-05T20:53:06.963Z,101954.81
2023-01-05T20:55:08.509Z,101945.16
2023-01-05T20:57:10.216Z,101956.56
2023-01-05T20:59:17.885Z,101953.94
2023-01-05T21:01:19.983Z,101949.56
2023-01-05T21:03:21.476Z,101943.41
2023-01-05T21:05:23.058Z,101944.28
2023-01-05T21:07:24.763Z,101947.78
2023-01-05T21:09:28.404Z,101944.28
2023-01-05T21:11:29.877Z,101954.81
2023-01-05T21:13:33.109Z,101941.66
2023-01-05T21:15:34.801Z,101945.19
2023-01-05T21:17:36.282Z,101951.31
2023-01-05T21:19:37.901Z,101945.19
2023-01-05T21:21:39.360Z,101943.44
2023-01-05T21:23:41.262Z,101936.41
2023-01-05T21:26:05.692Z,101941.69
2023-01-05T21:28:05.766Z,101944.31
2023-01-05T21:30:08.150Z,101945.19
2023-01-05T21:32:09.687Z,101943.47
2023-01-05T21:34:11.744Z,101933.81
2023-01-05T21:36:19.402Z,101951.34
2023-01-05T21:38:20.855Z,101943.44
2023-01-05T21:40:27.744Z,101941.69
2023-01-05T21:42:42.489Z,101940.81
2023-01-05T21:44:44.040Z,101937.31
2023-01-05T21:46:46.735Z,101932.03
2023-01-05T21:48:48.173Z,101941.69
2023-01-05T21:51:08.235Z,101934.66
2023-01-05T21:53:33.626Z,101927.63
2023-01-05T21:55:53.531Z,101925.88
2023-01-05T21:57:55.103Z,101925.00
2023-01-05T21:59:56.586Z,101918.84
2023-01-05T22:01:58.212Z,101929.38
2023-01-05T22:03:59.778Z,101913.59
2023-01-05T22:06:01.286Z,101910.94
2023-01-05T22:08:02.818Z,101912.69
2023-01-05T22:10:05.106Z,101904.78
2023-01-05T22:12:09.969Z,101899.53
2023-01-05T22:14:11.457Z,101893.38
2023-01-05T22:16:13.059Z,101900.41
2023-01-05T22:18:14.599Z,101903.03
2023-01-05T22:20:16.236Z,101892.50
2023-01-05T22:22:17.710Z,101894.25
2023-01-05T22:24:19.610Z,101891.63
2023-01-05T22:26:21.228Z,101889.88
2023-01-05T22:28:22.684Z,101889.88
2023-01-05T22:30:25.984Z,101884.59
2023-01-05T22:32:27.452Z,101886.34
2023-01-05T22:34:28.912Z,101881.94
2023-01-05T22:36:31.089Z,101876.69
2023-01-05T22:38:38.877Z,101883.69
2023-01-05T22:40:40.428Z,101873.16
2023-01-05T22:42:41.924Z,101875.78
2023-01-05T22:44:43.463Z,101876.66
2023-01-05T22:46:44.935Z,101886.31
2023-01-05T22:48:48.851Z,101875.78
2023-01-05T22:50:50.301Z,101875.78
2023-01-05T22:52:51.765Z,101871.41
2023-01-05T22:54:53.301Z,101867.00
2023-01-05T22:56:54.766Z,101866.13
2023-01-05T22:58:57.186Z,101871.38
2023-01-05T23:01:22.783Z,101863.50
2023-01-05T23:03:24.263Z,101863.50
2023-01-05T23:05:25.989Z,101862.59
2023-01-05T23:07:27.539Z,101863.47
2023-01-05T23:09:29.068Z,101857.34
2023-01-05T23:11:34.392Z,101855.56
2023-01-05T23:13:36.557Z,101855.56
2023-01-05T23:15:38.009Z,101852.03
2023-01-05T23:17:39.473Z,101846.78
2023-01-05T23:19:40.904Z,101837.09
2023-01-05T23:21:42.623Z,101837.97
2023-01-05T23:23:44.565Z,101829.19
2023-01-05T23:25:46.784Z,101830.06
2023-01-05T23:27:48.250Z,101828.31
2023-01-05T23:29:49.703Z,101827.44
2023-01-05T23:31:51.167Z,101825.66
2023-01-05T23:33:52.743Z,101823.03
2023-01-05T23:35:55.381Z,101828.31
2023-01-05T23:37:56.823Z,101824.78
2023-01-05T23:39:58.290Z,101828.28
2023-01-05T23:41:59.791Z,101830.91
2023-01-05T23:44:01.308Z,101823.00
2023-01-05T23:46:09.421Z,101812.47
2023-01-05T23:48:11.999Z,101809.84
2023-01-05T23:50:13.476Z,101811.59
2023-01-05T23:52:14.927Z,101807.22
2023-01-05T23:54:16.449Z,101801.06
2023-01-05T23:56:20.936Z,101793.16
2023-01-05T23:58:22.389Z,101806.31
